Time;durP1;ratioP1;P1;durP2;ratioP2;P2;SDS_P1;SDS_P2;PMS_P1;PMS_P2;Temp;Humidity;BMP_temperature;BMP_pressure;BME280_temperature;BME280_humidity;BME280_pressure;Samples;Min_cycle;Max_cycle;Signal;HPM_P1;HPM_P2
2021/07/31 00:01:08;;;;;;;15.80;9.27;;;19.80;93.10;;;;;;4988962;28;20426;-75
2021/07/31 00:03:38;;;;;;;17.87;10.20;;;19.80;93.10;;;;;;4989423;28;20819;-76
2021/07/31 00:06:05;;;;;;;18.73;10.40;;;19.80;93.10;;;;;;4993498;28;20459;-77
2021/07/31 00:08:32;;;;;;;15.53;9.33;;;19.70;93.30;;;;;;4993158;28;20444;-74
2021/07/31 00:10:58;;;;;;;18.33;9.17;;;19.70;93.50;;;;;;4992165;28;20429;-74
2021/07/31 00:13:25;;;;;;;14.03;8.90;;;19.80;93.40;;;;;;4984631;28;20968;-75
2021/07/31 00:15:51;;;;;;;19.37;9.47;;;19.80;93.10;;;;;;4991529;28;20477;-75
2021/07/31 00:18:17;;;;;;;11.63;7.70;;;19.80;93.00;;;;;;4990282;28;20450;-76
2021/07/31 00:20:43;;;;;;;19.40;9.73;;;19.90;93.00;;;;;;4993220;28;20418;-73
2021/07/31 00:23:09;;;;;;;14.10;8.70;;;20.00;92.80;;;;;;4991947;28;20194;-74
2021/07/31 00:25:36;;;;;;;12.50;8.20;;;20.00;92.60;;;;;;4992326;28;20225;-74
2021/07/31 00:28:02;;;;;;;13.87;9.13;;;20.10;92.10;;;;;;4986211;28;20462;-72
2021/07/31 00:30:28;;;;;;;14.43;8.37;;;20.20;91.70;;;;;;4991233;28;20924;-74
2021/07/31 00:32:55;;;;;;;14.57;8.90;;;20.20;91.40;;;;;;4985538;28;20488;-75
2021/07/31 00:35:21;;;;;;;15.87;8.93;;;20.10;91.60;;;;;;4989244;28;20473;-75
2021/07/31 00:37:47;;;;;;;17.87;9.70;;;20.10;91.90;;;;;;4988061;28;20457;-76
2021/07/31 00:40:13;;;;;;;13.60;8.60;;;20.20;91.70;;;;;;4990690;28;20414;-76
2021/07/31 00:42:40;;;;;;;13.90;8.93;;;20.20;91.50;;;;;;4986381;28;20199;-75
2021/07/31 00:45:07;;;;;;;16.00;9.30;;;20.10;91.90;;;;;;4987490;28;20433;-75
2021/07/31 00:47:33;;;;;;;17.40;8.70;;;20.00;92.60;;;;;;4985293;28;20453;-76
2021/07/31 00:50:00;;;;;;;15.20;9.43;;;19.90;93.30;;;;;;4986642;28;20442;-75
2021/07/31 00:52:26;;;;;;;16.07;8.50;;;19.70;93.90;;;;;;4991626;28;20437;-74
2021/07/31 00:54:54;;;;;;;13.93;8.97;;;19.50;93.80;;;;;;4984002;28;20433;-76
2021/07/31 00:57:22;;;;;;;12.87;7.43;;;19.50;93.50;;;;;;4987340;28;20535;-75
2021/07/31 00:59:49;;;;;;;11.20;8.07;;;19.50;93.10;;;;;;4991908;28;20524;-74
2021/07/31 01:02:14;;;;;;;10.20;6.60;;;19.50;92.40;;;;;;4991152;28;20492;-75
2021/07/31 01:04:40;;;;;;;9.83;6.70;;;19.50;91.00;;;;;;4991081;28;20513;-75
2021/07/31 01:07:06;;;;;;;12.80;5.90;;;19.50;90.30;;;;;;4988259;28;20838;-74
2021/07/31 01:09:32;;;;;;;9.87;5.00;;;19.70;88.60;;;;;;4991044;28;20189;-73
2021/07/31 01:11:58;;;;;;;20.03;5.80;;;19.70;88.10;;;;;;4980160;28;20182;-74
2021/07/31 01:14:23;;;;;;;8.17;5.03;;;19.70;87.10;;;;;;4985428;28;20188;-75
2021/07/31 01:16:49;;;;;;;9.93;5.27;;;19.70;87.40;;;;;;4989650;28;20288;-75
2021/07/31 01:19:15;;;;;;;13.80;6.23;;;19.70;87.70;;;;;;4990741;28;20187;-75
2021/07/31 01:21:45;;;;;;;11.60;6.17;;;19.70;88.00;;;;;;4984228;28;20241;-75
2021/07/31 01:24:13;;;;;;;8.03;5.30;;;19.70;88.30;;;;;;4990391;28;20189;-75
2021/07/31 01:26:45;;;;;;;8.60;5.27;;;19.70;88.40;;;;;;4990081;28;20481;-75
2021/07/31 01:29:11;;;;;;;9.20;5.90;;;19.60;88.60;;;;;;4990250;28;20436;-75
2021/07/31 01:31:38;;;;;;;12.63;6.13;;;19.60;88.90;;;;;;4990552;28;20426;-73
2021/07/31 01:34:04;;;;;;;11.30;6.40;;;19.70;89.20;;;;;;4988774;28;20437;-75
2021/07/31 01:36:30;;;;;;;9.23;6.00;;;19.60;89.30;;;;;;4989867;28;20483;-73
2021/07/31 01:38:57;;;;;;;11.37;5.90;;;19.60;89.30;;;;;;4989542;28;20816;-74
2021/07/31 01:41:23;;;;;;;9.60;5.90;;;19.60;89.20;;;;;;4985746;28;20199;-76
2021/07/31 01:43:50;;;;;;;7.33;4.87;;;19.60;88.60;;;;;;4990353;28;20434;-75
2021/07/31 01:46:16;;;;;;;5.93;4.17;;;19.50;86.60;;;;;;4989565;28;20993;-74
2021/07/31 01:48:42;;;;;;;9.50;4.10;;;19.50;85.30;;;;;;4989365;28;20463;-74
2021/07/31 01:51:07;;;;;;;7.97;4.57;;;19.50;85.00;;;;;;4989882;28;20478;-76
2021/07/31 01:53:33;;;;;;;11.40;4.83;;;19.40;85.50;;;;;;4986938;28;20204;-73
2021/07/31 01:55:59;;;;;;;9.70;4.00;;;19.40;84.00;;;;;;4978781;28;20225;-73
2021/07/31 01:58:25;;;;;;;8.40;4.53;;;19.40;84.10;;;;;;4985665;28;20222;-75
2021/07/31 02:00:54;;;;;;;6.73;4.60;;;19.40;84.90;;;;;;4984115;28;20189;-75
2021/07/31 02:03:20;;;;;;;8.70;4.43;;;19.40;84.30;;;;;;4986696;28;20269;-76
2021/07/31 02:05:46;;;;;;;7.90;3.50;;;19.40;84.00;;;;;;4989015;28;20432;-74
2021/07/31 02:08:12;;;;;;;6.07;3.40;;;19.40;80.90;;;;;;4985030;28;20500;-76
2021/07/31 02:10:38;;;;;;;6.33;3.40;;;19.30;80.20;;;;;;4988056;28;20319;-74
2021/07/31 02:13:04;;;;;;;9.77;3.47;;;19.20;80.20;;;;;;4987777;28;20897;-74
2021/07/31 02:15:30;;;;;;;5.93;3.30;;;19.20;81.10;;;;;;4986527;28;20214;-76
2021/07/31 02:17:56;;;;;;;6.67;3.80;;;19.30;83.30;;;;;;4990687;28;20233;-74
2021/07/31 02:20:23;;;;;;;7.73;4.50;;;19.30;83.60;;;;;;4984055;28;21183;-76
2021/07/31 02:22:49;;;;;;;7.13;4.50;;;19.30;84.10;;;;;;4990874;28;20834;-75
2021/07/31 02:25:15;;;;;;;7.67;3.90;;;19.20;84.10;;;;;;4983525;28;20436;-74
2021/07/31 02:27:41;;;;;;;6.30;3.00;;;19.10;83.60;;;;;;4988666;28;20512;-75
2021/07/31 02:30:07;;;;;;;5.93;3.40;;;19.10;81.50;;;;;;4987973;28;20198;-76
2021/07/31 02:32:33;;;;;;;7.07;3.40;;;19.10;83.30;;;;;;4987675;28;20186;-75
2021/07/31 02:34:59;;;;;;;5.63;3.50;;;19.00;82.20;;;;;;4991309;28;20491;-76
2021/07/31 02:37:24;;;;;;;7.63;3.67;;;19.00;82.20;;;;;;4984845;28;20203;-75
2021/07/31 02:39:50;;;;;;;8.73;3.93;;;18.90;81.80;;;;;;4991431;28;20209;-74
2021/07/31 02:42:16;;;;;;;5.20;3.20;;;18.90;81.20;;;;;;4989454;28;20345;-74
2021/07/31 02:44:42;;;;;;;4.63;3.17;;;18.80;80.60;;;;;;4979215;28;20183;-76
2021/07/31 02:47:07;;;;;;;5.53;2.93;;;18.80;80.30;;;;;;4991244;28;20612;-75
2021/07/31 02:49:33;;;;;;;4.60;3.23;;;18.70;80.20;;;;;;4987861;28;20347;-75
2021/07/31 02:51:59;;;;;;;8.70;3.50;;;18.60;80.20;;;;;;4992104;28;20564;-75
2021/07/31 02:54:25;;;;;;;5.10;3.40;;;18.60;82.20;;;;;;4987600;28;20218;-74
2021/07/31 02:56:50;;;;;;;6.80;3.40;;;18.50;81.80;;;;;;4990101;28;20217;-76
2021/07/31 02:59:16;;;;;;;7.33;4.03;;;18.50;83.30;;;;;;4989649;28;20289;-74
2021/07/31 03:01:41;;;;;;;9.50;4.07;;;18.40;85.50;;;;;;4988487;28;20214;-75
2021/07/31 03:04:07;;;;;;;6.77;4.00;;;18.40;86.20;;;;;;4982500;28;20183;-75
2021/07/31 03:06:33;;;;;;;6.30;4.20;;;18.30;87.10;;;;;;4990212;28;20650;-76
2021/07/31 03:08:58;;;;;;;8.70;4.30;;;18.30;89.50;;;;;;4990456;28;20208;-76
2021/07/31 03:11:24;;;;;;;9.10;4.30;;;18.20;90.40;;;;;;4992217;28;20214;-75
2021/07/31 03:13:50;;;;;;;8.17;4.23;;;18.00;90.70;;;;;;4992114;28;20237;-74
2021/07/31 03:16:16;;;;;;;7.20;4.40;;;17.90;91.80;;;;;;4993636;28;20253;-76
2021/07/31 03:18:42;;;;;;;8.30;4.73;;;17.80;92.40;;;;;;4992571;28;20553;-75
2021/07/31 03:21:08;;;;;;;8.83;5.07;;;17.60;93.00;;;;;;4991487;28;20686;-76
2021/07/31 03:23:33;;;;;;;7.83;4.60;;;17.50;93.50;;;;;;4993830;28;20512;-74
2021/07/31 03:26:00;;;;;;;10.77;4.60;;;17.40;93.90;;;;;;4986650;28;20198;-75
2021/07/31 03:28:27;;;;;;;9.50;4.73;;;17.30;94.10;;;;;;4988712;28;20213;-75
2021/07/31 03:30:53;;;;;;;17.50;5.50;;;17.30;94.20;;;;;;4992479;28;20441;-76
2021/07/31 03:33:19;;;;;;;8.80;4.30;;;17.30;94.00;;;;;;4986373;28;21252;-76
2021/07/31 03:35:45;;;;;;;13.87;5.20;;;17.20;93.60;;;;;;4993757;28;20461;-75
2021/07/31 03:38:11;;;;;;;8.20;4.40;;;17.20;92.90;;;;;;4979279;28;20545;-74
2021/07/31 03:40:37;;;;;;;8.20;4.10;;;17.20;92.80;;;;;;4993599;28;20186;-74
2021/07/31 03:43:04;;;;;;;8.27;3.90;;;17.20;92.00;;;;;;4993566;28;20491;-74
2021/07/31 03:45:29;;;;;;;6.30;3.90;;;17.30;90.90;;;;;;4989903;28;20436;-74
2021/07/31 03:47:55;;;;;;;10.20;4.07;;;17.30;91.10;;;;;;4990921;28;20446;-73
2021/07/31 03:50:22;;;;;;;8.20;4.57;;;17.30;91.50;;;;;;4990301;28;20524;-73
2021/07/31 03:52:47;;;;;;;7.90;4.60;;;17.20;90.90;;;;;;4988033;28;20425;-74
2021/07/31 03:55:13;;;;;;;4.20;3.23;;;17.20;90.90;;;;;;4994514;28;20480;-74
2021/07/31 03:57:39;;;;;;;8.33;3.90;;;17.20;90.20;;;;;;4997761;28;20237;-75
2021/07/31 04:00:06;;;;;;;8.20;3.80;;;17.20;90.50;;;;;;4998005;28;20704;-74
2021/07/31 04:02:33;;;;;;;6.67;4.20;;;17.20;90.40;;;;;;4997180;28;20186;-73
2021/07/31 04:04:59;;;;;;;8.20;4.07;;;17.20;91.80;;;;;;4991176;28;20437;-74
2021/07/31 04:07:25;;;;;;;10.03;4.30;;;17.10;92.00;;;;;;4988580;28;20444;-75
2021/07/31 04:09:51;;;;;;;6.83;3.80;;;17.00;91.70;;;;;;4992719;28;20433;-75
2021/07/31 04:12:17;;;;;;;10.23;4.60;;;17.00;90.60;;;;;;4984862;28;20430;-75
2021/07/31 04:14:43;;;;;;;9.40;4.30;;;16.90;91.20;;;;;;4990921;28;20443;-76
2021/07/31 04:17:11;;;;;;;5.70;3.70;;;16.90;91.00;;;;;;4991538;28;20685;-76
2021/07/31 04:19:37;;;;;;;7.33;4.27;;;17.00;91.20;;;;;;4989147;28;20187;-74
2021/07/31 04:22:03;;;;;;;8.33;3.67;;;16.90;91.20;;;;;;4989650;28;20419;-76
2021/07/31 04:24:29;;;;;;;5.77;3.20;;;16.80;90.30;;;;;;4987206;28;20184;-75
2021/07/31 04:26:54;;;;;;;7.03;3.60;;;16.90;90.60;;;;;;4988955;28;20437;-76
2021/07/31 04:29:20;;;;;;;7.43;3.80;;;16.90;90.20;;;;;;4988838;28;20240;-75
2021/07/31 04:31:47;;;;;;;7.60;3.87;;;16.90;90.60;;;;;;4993473;28;20202;-74
2021/07/31 04:34:13;;;;;;;5.40;3.63;;;16.80;90.80;;;;;;4992942;28;20185;-73
2021/07/31 04:36:38;;;;;;;8.70;3.90;;;16.80;90.80;;;;;;4993575;28;20475;-75
2021/07/31 04:39:05;;;;;;;8.20;3.80;;;16.80;90.80;;;;;;4991815;28;20854;-75
2021/07/31 04:41:31;;;;;;;5.50;3.17;;;16.70;90.80;;;;;;4988191;28;20902;-75
2021/07/31 04:43:57;;;;;;;11.23;4.00;;;16.70;90.70;;;;;;4986297;28;20421;-76
2021/07/31 04:46:22;;;;;;;9.23;3.70;;;16.70;90.30;;;;;;4992378;28;20899;-75
2021/07/31 04:48:48;;;;;;;11.70;3.90;;;16.70;90.30;;;;;;4991243;28;20238;-75
2021/07/31 04:51:14;;;;;;;6.00;3.47;;;16.70;90.20;;;;;;4991024;28;20185;-74
2021/07/31 04:53:40;;;;;;;8.23;3.30;;;16.70;90.10;;;;;;4991243;28;20955;-73
2021/07/31 04:56:06;;;;;;;7.63;3.93;;;16.60;89.90;;;;;;4992414;28;20829;-72
2021/07/31 04:58:32;;;;;;;7.17;3.60;;;16.50;90.70;;;;;;4991572;28;20293;-74
2021/07/31 05:00:59;;;;;;;9.03;3.73;;;16.50;90.90;;;;;;4995860;28;20418;-75
2021/07/31 05:03:27;;;;;;;7.77;4.20;;;16.50;90.60;;;;;;4995004;28;20549;-76
2021/07/31 05:05:52;;;;;;;6.90;4.00;;;16.50;90.50;;;;;;4992823;28;20420;-74
2021/07/31 05:08:18;;;;;;;5.00;3.40;;;16.50;89.50;;;;;;4992934;28;20506;-75
2021/07/31 05:10:46;;;;;;;6.60;3.60;;;16.60;88.60;;;;;;4993045;28;20219;-76
2021/07/31 05:13:12;;;;;;;11.10;3.13;;;16.70;88.10;;;;;;4983790;28;20699;-75
2021/07/31 05:15:39;;;;;;;11.13;3.10;;;16.80;87.30;;;;;;4987968;28;20451;-74
2021/07/31 05:18:06;;;;;;;7.90;3.33;;;16.80;87.00;;;;;;4992368;28;20460;-73
2021/07/31 05:20:33;;;;;;;8.60;3.50;;;16.90;86.80;;;;;;4986932;28;21002;-73
2021/07/31 05:22:59;;;;;;;4.03;2.27;;;16.80;86.00;;;;;;4992573;28;20417;-76
2021/07/31 05:25:25;;;;;;;7.10;3.33;;;16.90;85.90;;;;;;4985354;28;20425;-72
2021/07/31 05:27:51;;;;;;;7.43;3.60;;;17.00;85.50;;;;;;4992651;28;20453;-74
2021/07/31 05:30:17;;;;;;;5.67;3.00;;;17.00;85.60;;;;;;4991257;28;20269;-75
2021/07/31 05:32:43;;;;;;;3.47;2.70;;;17.10;85.50;;;;;;4988587;28;20516;-74
2021/07/31 05:35:09;;;;;;;5.07;2.40;;;17.20;83.70;;;;;;4989107;28;20970;-74
2021/07/31 05:37:35;;;;;;;7.83;3.40;;;17.20;83.40;;;;;;4992060;28;20703;-75
2021/07/31 05:40:01;;;;;;;5.80;3.20;;;17.30;83.40;;;;;;4990017;28;20418;-73
2021/07/31 05:42:27;;;;;;;6.13;2.57;;;17.30;83.30;;;;;;4992364;28;20182;-75
2021/07/31 05:45:01;;;;;;;6.60;3.10;;;17.40;82.80;;;;;;4992063;28;20541;-74
2021/07/31 05:47:28;;;;;;;10.20;3.00;;;17.40;81.50;;;;;;4990675;28;20438;-74
2021/07/31 05:49:59;;;;;;;5.17;3.10;;;17.50;80.80;;;;;;4988522;28;20433;-74
2021/07/31 05:52:26;;;;;;;7.83;2.70;;;17.50;80.60;;;;;;4992105;28;20837;-76
2021/07/31 05:54:53;;;;;;;5.60;2.30;;;17.60;80.00;;;;;;4986988;28;20414;-74
2021/07/31 05:57:19;;;;;;;8.83;2.83;;;17.70;79.50;;;;;;4992042;28;20512;-73
2021/07/31 05:59:45;;;;;;;4.90;2.63;;;17.80;78.60;;;;;;4992766;28;20422;-75
2021/07/31 06:02:11;;;;;;;6.50;2.70;;;17.80;78.40;;;;;;4990705;28;20984;-76
2021/07/31 06:04:38;;;;;;;4.43;2.70;;;17.90;77.80;;;;;;4984858;28;20417;-74
2021/07/31 06:07:06;;;;;;;3.63;2.30;;;18.00;78.00;;;;;;4990373;28;20220;-75
2021/07/31 06:09:36;;;;;;;4.60;2.60;;;18.00;78.40;;;;;;4991465;28;20425;-74
2021/07/31 06:12:03;;;;;;;6.63;2.60;;;18.10;78.70;;;;;;4982834;28;20442;-73
2021/07/31 06:14:29;;;;;;;3.83;2.47;;;18.10;78.90;;;;;;4986017;28;20516;-74
2021/07/31 06:16:55;;;;;;;4.80;2.90;;;18.10;79.20;;;;;;4990034;28;20465;-75
2021/07/31 06:19:21;;;;;;;5.00;2.70;;;18.20;79.20;;;;;;4988054;28;20936;-75
2021/07/31 06:21:47;;;;;;;5.87;2.87;;;18.30;79.30;;;;;;4990426;28;20179;-74
2021/07/31 06:24:13;;;;;;;6.63;2.40;;;18.30;78.60;;;;;;4988939;28;20418;-75
2021/07/31 06:26:38;;;;;;;6.43;2.77;;;18.40;76.70;;;;;;4984653;28;20186;-74
2021/07/31 06:29:04;;;;;;;6.17;2.97;;;18.50;76.70;;;;;;4990753;28;20230;-74
2021/07/31 06:31:31;;;;;;;4.30;2.30;;;18.50;76.70;;;;;;4991111;28;20180;-75
2021/07/31 06:33:59;;;;;;;5.13;2.70;;;18.50;75.90;;;;;;4990576;28;20233;-74
2021/07/31 06:36:25;;;;;;;6.10;2.70;;;18.60;75.70;;;;;;4988326;28;20491;-74
2021/07/31 06:38:51;;;;;;;6.20;2.27;;;18.70;75.80;;;;;;4986719;28;20484;-74
2021/07/31 06:41:17;;;;;;;5.80;3.07;;;18.80;75.40;;;;;;4988060;28;20180;-74
2021/07/31 06:43:43;;;;;;;4.30;2.73;;;18.80;75.70;;;;;;4992637;28;20432;-75
2021/07/31 06:46:16;;;;;;;7.80;2.77;;;18.80;75.40;;;;;;4994769;28;20639;-75
2021/07/31 06:48:42;;;;;;;2.47;2.00;;;18.90;72.90;;;;;;4996475;28;20211;-74
2021/07/31 06:51:09;;;;;;;9.20;2.50;;;19.00;71.70;;;;;;4988785;28;20488;-75
2021/07/31 06:53:35;;;;;;;8.37;2.60;;;19.00;72.60;;;;;;4993763;28;20427;-75
2021/07/31 06:56:02;;;;;;;3.63;2.17;;;19.00;71.70;;;;;;4992810;28;20511;-77
2021/07/31 06:58:28;;;;;;;7.57;2.47;;;19.00;69.90;;;;;;4991617;28;20826;-75
2021/07/31 07:00:53;;;;;;;4.30;2.60;;;19.00;70.70;;;;;;4989958;28;20424;-74
2021/07/31 07:03:20;;;;;;;6.87;2.30;;;19.00;70.80;;;;;;4996569;28;20432;-76
2021/07/31 07:05:45;;;;;;;4.57;2.40;;;19.10;70.20;;;;;;4994951;28;20188;-75
2021/07/31 07:08:11;;;;;;;5.60;2.47;;;19.10;69.90;;;;;;4997011;28;20463;-74
2021/07/31 07:10:37;;;;;;;3.40;2.00;;;19.20;69.40;;;;;;4996589;28;20284;-74
2021/07/31 07:13:03;;;;;;;7.90;2.60;;;19.30;68.90;;;;;;4994860;28;20434;-74
2021/07/31 07:15:29;;;;;;;6.07;2.50;;;19.40;69.80;;;;;;4985719;28;20210;-75
2021/07/31 07:17:56;;;;;;;4.70;2.10;;;19.30;69.10;;;;;;4987424;28;20195;-75
2021/07/31 07:20:22;;;;;;;10.00;3.03;;;19.10;69.80;;;;;;4995237;28;20683;-74
2021/07/31 07:22:48;;;;;;;7.70;2.30;;;19.20;70.20;;;;;;4994959;28;20728;-75
2021/07/31 07:25:14;;;;;;;9.23;2.47;;;19.30;70.20;;;;;;4988445;28;20518;-73
2021/07/31 07:27:40;;;;;;;5.87;2.20;;;19.30;70.40;;;;;;4993545;28;20567;-76
2021/07/31 07:30:07;;;;;;;6.67;2.40;;;19.30;70.70;;;;;;4995599;28;20513;-74
2021/07/31 07:32:36;;;;;;;9.40;2.90;;;19.50;70.40;;;;;;4993302;28;20452;-74
2021/07/31 07:35:06;;;;;;;3.60;2.57;;;19.60;69.90;;;;;;4991742;28;20513;-74
2021/07/31 07:37:32;;;;;;;4.43;2.50;;;19.60;69.80;;;;;;4980195;28;20529;-75
2021/07/31 07:40:05;;;;;;;4.30;2.40;;;19.60;69.90;;;;;;4991754;28;20420;-74
2021/07/31 07:42:31;;;;;;;6.43;3.10;;;19.70;70.40;;;;;;4987763;28;20429;-81
2021/07/31 07:44:56;;;;;;;6.80;2.90;;;19.80;69.80;;;;;;4997198;28;20428;-77
2021/07/31 07:47:22;;;;;;;3.97;2.37;;;19.80;69.10;;;;;;4990501;28;20206;-79
2021/07/31 07:49:48;;;;;;;9.00;3.13;;;19.90;69.20;;;;;;4994774;28;20235;-78
2021/07/31 07:52:13;;;;;;;7.43;2.67;;;19.90;68.80;;;;;;4996565;28;20183;-79
2021/07/31 07:54:39;;;;;;;5.00;2.70;;;20.00;68.50;;;;;;5012431;28;20209;-77
2021/07/31 07:57:08;;;;;;;5.93;2.97;;;19.90;67.70;;;;;;4995878;28;20236;-77
2021/07/31 07:59:34;;;;;;;7.73;2.53;;;20.00;68.90;;;;;;4995347;28;20233;-76
2021/07/31 08:02:01;;;;;;;4.10;2.63;;;20.10;67.60;;;;;;4986873;28;20513;-76
2021/07/31 08:04:27;;;;;;;4.53;2.30;;;20.10;65.30;;;;;;4996052;28;20421;-76
2021/07/31 08:06:52;;;;;;;4.67;2.60;;;20.10;64.70;;;;;;4997145;28;20951;-78
2021/07/31 08:09:18;;;;;;;2.90;2.20;;;20.10;66.00;;;;;;4997204;28;20289;-77
2021/07/31 08:11:44;;;;;;;6.30;2.37;;;20.20;66.40;;;;;;4997407;28;20189;-79
2021/07/31 08:14:10;;;;;;;4.93;2.80;;;20.20;65.80;;;;;;4999532;28;20236;-77
2021/07/31 08:16:36;;;;;;;3.77;2.03;;;20.30;66.70;;;;;;4998990;28;20216;-79
2021/07/31 08:19:03;;;;;;;5.63;2.50;;;20.40;65.70;;;;;;4996290;28;20660;-77
2021/07/31 08:21:30;;;;;;;3.27;1.97;;;20.50;65.40;;;;;;4994412;28;20439;-77
2021/07/31 08:23:56;;;;;;;5.57;2.10;;;20.60;65.30;;;;;;4997948;28;20418;-77
2021/07/31 08:26:22;;;;;;;7.13;2.70;;;20.60;64.70;;;;;;5004738;28;20428;-76
2021/07/31 08:28:48;;;;;;;2.53;2.40;;;20.50;64.80;;;;;;4996806;28;20536;-78
2021/07/31 08:31:14;;;;;;;5.47;2.40;;;20.50;64.70;;;;;;4985162;28;20191;-77
2021/07/31 08:33:40;;;;;;;5.20;2.70;;;20.50;63.90;;;;;;4998226;28;20434;-77
2021/07/31 08:36:07;;;;;;;7.47;2.80;;;20.60;63.70;;;;;;5001387;28;20991;-80
2021/07/31 08:38:33;;;;;;;6.83;3.40;;;20.50;64.40;;;;;;4998488;28;20519;-78
2021/07/31 08:41:01;;;;;;;4.87;2.83;;;20.50;64.50;;;;;;4993770;28;20451;-79
2021/07/31 08:43:28;;;;;;;4.20;2.40;;;20.50;65.00;;;;;;4997568;28;20509;-76
2021/07/31 08:45:54;;;;;;;5.40;2.70;;;20.60;65.00;;;;;;4999881;28;20488;-77
2021/07/31 08:48:28;;;;;;;4.50;2.90;;;20.60;65.10;;;;;;4997238;28;20483;-77
2021/07/31 08:50:59;;;;;;;5.20;2.60;;;20.70;64.50;;;;;;4993740;28;20434;-75
2021/07/31 08:53:26;;;;;;;8.20;2.40;;;20.90;64.20;;;;;;4994593;28;20445;-79
2021/07/31 08:55:52;;;;;;;7.23;2.77;;;21.00;62.60;;;;;;4991360;28;20475;-77
2021/07/31 08:58:18;;;;;;;5.60;3.00;;;20.80;63.10;;;;;;4988599;28;20486;-77
2021/07/31 09:00:44;;;;;;;4.00;2.50;;;20.90;63.80;;;;;;4991863;28;20770;-77
2021/07/31 09:03:15;;;;;;;8.27;3.30;;;20.90;62.20;;;;;;4997095;28;20262;-76
2021/07/31 09:05:41;;;;;;;8.47;2.77;;;20.90;63.50;;;;;;4995262;28;20229;-77
2021/07/31 09:08:08;;;;;;;4.70;2.67;;;21.10;62.60;;;;;;4995937;28;20529;-77
2021/07/31 09:10:37;;;;;;;5.97;2.43;;;21.10;62.60;;;;;;4995858;28;20418;-76
2021/07/31 09:13:05;;;;;;;8.13;2.57;;;21.00;62.90;;;;;;4994426;28;20418;-77
2021/07/31 09:15:39;;;;;;;4.20;2.73;;;21.10;62.90;;;;;;4982384;28;20466;-77
2021/07/31 09:18:35;;;;;;;4.00;2.40;;;21.20;63.50;;;;;;4996423;28;20469;-79
2021/07/31 09:21:27;;;;;;;4.80;2.20;;;21.50;62.90;;;;;;4996201;28;20419;-78
2021/07/31 09:23:53;;;;;;;10.87;3.10;;;21.60;60.30;;;;;;4995761;28;20459;-77
2021/07/31 09:26:49;;;;;;;4.73;2.67;;;21.60;61.70;;;;;;4993845;28;20868;-78
2021/07/31 09:29:26;;;;;;;10.50;2.73;;;21.80;61.90;;;;;;4991448;28;20437;-78
2021/07/31 09:31:55;;;;;;;8.50;2.40;;;22.00;61.50;;;;;;4993901;28;21266;-78
2021/07/31 09:34:27;;;;;;;4.90;2.93;;;22.20;60.90;;;;;;4994223;28;20436;-77
2021/07/31 09:37:05;;;;;;;5.07;2.80;;;22.10;61.20;;;;;;4990606;28;20479;-78
2021/07/31 09:39:51;;;;;;;10.40;2.87;;;22.00;61.60;;;;;;4996230;28;20462;-78
2021/07/31 09:42:39;;;;;;;7.87;3.20;;;21.90;61.50;;;;;;4997152;28;20432;-77
2021/07/31 09:45:13;;;;;;;5.33;3.13;;;21.90;62.20;;;;;;4995748;28;20913;-76
2021/07/31 09:48:03;;;;;;;6.00;2.90;;;22.00;61.90;;;;;;4989358;28;20459;-77
2021/07/31 09:50:37;;;;;;;5.03;2.77;;;22.00;61.90;;;;;;4992523;28;20746;-76
2021/07/31 09:53:14;;;;;;;3.93;2.70;;;22.20;61.90;;;;;;4993629;28;20428;-77
2021/07/31 09:55:48;;;;;;;4.47;2.53;;;22.20;60.40;;;;;;4996554;28;20507;-76
2021/07/31 09:58:16;;;;;;;7.83;2.87;;;22.20;60.70;;;;;;4992976;28;20469;-75
2021/07/31 10:00:46;;;;;;;3.43;2.30;;;22.50;59.90;;;;;;4999121;28;20431;-76
2021/07/31 10:03:16;;;;;;;3.70;2.33;;;22.50;58.90;;;;;;4995729;28;20512;-77
2021/07/31 10:05:43;;;;;;;8.23;2.43;;;22.50;59.60;;;;;;4990487;28;20428;-78
2021/07/31 10:08:13;;;;;;;4.70;2.90;;;22.50;58.50;;;;;;4995547;28;20476;-77
2021/07/31 10:10:39;;;;;;;15.73;3.97;;;22.40;59.10;;;;;;4991289;28;20815;-77
2021/07/31 10:13:05;;;;;;;7.40;3.20;;;22.40;59.50;;;;;;4996219;28;20997;-78
2021/07/31 10:15:32;;;;;;;4.80;2.97;;;22.60;58.80;;;;;;4995063;28;20518;-80
2021/07/31 10:17:59;;;;;;;8.80;2.57;;;22.50;58.20;;;;;;4986238;28;20710;-81
2021/07/31 10:20:30;;;;;;;4.13;2.53;;;22.80;57.60;;;;;;4996162;28;20431;-81
2021/07/31 10:22:56;;;;;;;3.47;2.30;;;23.30;55.70;;;;;;4997311;28;20813;-80
2021/07/31 10:25:23;;;;;;;3.87;2.47;;;23.80;54.40;;;;;;4995869;28;20462;-79
2021/07/31 10:27:50;;;;;;;3.70;2.10;;;24.10;51.80;;;;;;4996629;28;20955;-77
2021/07/31 10:30:27;;;;;;;3.93;2.43;;;24.10;52.40;;;;;;4995232;28;20459;-79
2021/07/31 10:32:54;;;;;;;4.37;2.10;;;24.00;52.60;;;;;;4992043;28;20436;-77
2021/07/31 10:35:37;;;;;;;6.00;2.57;;;24.10;50.90;;;;;;4994761;28;20474;-76
2021/07/31 10:38:08;;;;;;;7.97;2.63;;;24.10;51.00;;;;;;4991633;28;20470;-78
2021/07/31 10:40:40;;;;;;;5.60;2.43;;;23.90;51.80;;;;;;4998010;28;20439;-79
2021/07/31 10:43:07;;;;;;;4.93;2.27;;;23.80;51.70;;;;;;4987419;28;20849;-72
2021/07/31 10:45:34;;;;;;;10.07;2.57;;;23.50;51.70;;;;;;4995348;28;20424;-76
2021/07/31 10:48:06;;;;;;;4.40;2.27;;;23.10;52.50;;;;;;4995789;28;20443;-76
2021/07/31 10:50:31;;;;;;;2.53;1.97;;;22.90;53.30;;;;;;4993219;28;20520;-78
2021/07/31 10:53:02;;;;;;;3.00;2.07;;;22.90;52.90;;;;;;5007479;28;20471;-76
2021/07/31 10:55:37;;;;;;;7.73;2.60;;;22.80;53.30;;;;;;4999340;28;20754;-75
2021/07/31 10:58:07;;;;;;;3.77;2.50;;;22.90;54.00;;;;;;4992596;28;20598;-75
2021/07/31 11:00:37;;;;;;;3.40;2.40;;;23.10;53.60;;;;;;4990955;28;20484;-75
2021/07/31 11:03:24;;;;;;;5.50;2.20;;;23.40;52.10;;;;;;4990267;28;20413;-77
2021/07/31 11:05:58;;;;;;;3.10;1.87;;;23.70;50.70;;;;;;4985384;28;20791;-77
2021/07/31 11:08:25;;;;;;;5.90;2.40;;;24.00;50.60;;;;;;4992013;28;20447;-77
2021/07/31 11:10:57;;;;;;;4.40;2.90;;;24.40;49.40;;;;;;4992071;28;20483;-77
2021/07/31 11:13:22;;;;;;;4.93;2.37;;;24.80;49.10;;;;;;4991350;28;20426;-76
2021/07/31 11:16:03;;;;;;;2.90;2.20;;;25.20;48.50;;;;;;4991114;28;20462;-76
2021/07/31 11:18:35;;;;;;;5.33;2.20;;;25.20;48.10;;;;;;4979227;28;20207;-77
2021/07/31 11:21:11;;;;;;;4.90;2.30;;;25.30;47.90;;;;;;4990115;28;20497;-77
2021/07/31 11:24:01;;;;;;;4.90;2.47;;;25.30;47.30;;;;;;4983917;28;20410;-77
2021/07/31 11:26:46;;;;;;;5.20;2.63;;;25.50;47.40;;;;;;4990386;28;20901;-76
2021/07/31 11:29:23;;;;;;;4.57;2.60;;;26.10;46.60;;;;;;4990538;28;20465;-76
2021/07/31 11:32:12;;;;;;;5.20;2.43;;;26.00;45.10;;;;;;4990200;28;20457;-78
2021/07/31 11:34:39;;;;;;;3.53;2.30;;;25.90;46.50;;;;;;4993149;28;20491;-77
2021/07/31 11:37:09;;;;;;;3.10;2.30;;;26.20;45.10;;;;;;4987906;28;20467;-75
2021/07/31 11:39:35;;;;;;;6.03;2.60;;;26.00;45.10;;;;;;4994485;28;20454;-70
2021/07/31 11:42:02;;;;;;;6.50;2.27;;;25.20;46.90;;;;;;4995591;28;20416;-70
2021/07/31 11:44:30;;;;;;;5.07;2.70;;;24.50;47.90;;;;;;4995491;28;20412;-69
2021/07/31 11:46:56;;;;;;;8.83;2.57;;;24.50;48.60;;;;;;4995407;28;20922;-70
2021/07/31 11:49:34;;;;;;;5.20;2.00;;;24.60;47.90;;;;;;4991493;28;20417;-73
2021/07/31 11:52:05;;;;;;;4.00;2.47;;;24.90;47.10;;;;;;4986831;28;20532;-71
2021/07/31 11:54:32;;;;;;;5.93;2.40;;;25.10;47.10;;;;;;4987429;28;20474;-70
2021/07/31 11:56:59;;;;;;;6.60;2.70;;;25.40;47.40;;;;;;4984010;28;20561;-71
2021/07/31 11:59:33;;;;;;;3.13;2.10;;;26.00;45.40;;;;;;4986587;28;20423;-70
2021/07/31 12:01:59;;;;;;;3.40;2.23;;;26.40;45.70;;;;;;4993718;28;20456;-72
2021/07/31 12:04:45;;;;;;;4.80;2.10;;;26.60;43.90;;;;;;4992838;28;20439;-73
2021/07/31 12:07:17;;;;;;;4.67;2.70;;;26.60;44.50;;;;;;4990333;28;20539;-71
2021/07/31 12:09:56;;;;;;;4.17;2.30;;;26.70;42.60;;;;;;4991918;28;20435;-72
2021/07/31 12:12:30;;;;;;;4.00;2.40;;;26.50;44.20;;;;;;4984823;28;20868;-71
2021/07/31 12:15:14;;;;;;;3.93;2.50;;;26.70;44.10;;;;;;4989005;28;20428;-72
2021/07/31 12:17:45;;;;;;;4.10;2.80;;;26.70;43.90;;;;;;4978497;28;20483;-72
2021/07/31 12:20:12;;;;;;;4.33;2.53;;;26.70;44.20;;;;;;4989073;28;20783;-72
2021/07/31 12:22:52;;;;;;;3.13;2.23;;;26.30;45.00;;;;;;4995253;28;20515;-71
2021/07/31 12:25:20;;;;;;;3.90;3.13;;;26.40;45.00;;;;;;4985965;28;20424;-72
2021/07/31 12:27:50;;;;;;;3.77;2.40;;;26.60;44.90;;;;;;4986815;28;20474;-72
2021/07/31 12:30:39;;;;;;;5.40;2.67;;;26.80;43.80;;;;;;4987607;28;20418;-77
2021/07/31 12:33:05;;;;;;;23.77;12.30;;;26.80;43.70;;;;;;4986656;28;20479;-73
2021/07/31 12:35:37;;;;;;;5.13;3.17;;;26.70;44.10;;;;;;4990361;28;20538;-71
2021/07/31 12:38:08;;;;;;;4.73;2.40;;;26.80;44.50;;;;;;4984504;28;20288;-71
2021/07/31 12:40:35;;;;;;;5.13;1.97;;;26.70;43.50;;;;;;4983745;28;20447;-72
2021/07/31 12:43:01;;;;;;;2.60;2.23;;;26.60;43.70;;;;;;4982013;28;20445;-71
2021/07/31 12:45:28;;;;;;;3.73;2.40;;;26.40;44.70;;;;;;4988804;28;20461;-71
2021/07/31 12:47:54;;;;;;;4.40;2.80;;;26.30;45.00;;;;;;4990106;28;20456;-69
2021/07/31 12:50:21;;;;;;;3.20;2.40;;;26.30;44.60;;;;;;4982991;28;20490;-70